createdAt,value
2022-09-05T00:00:11.925Z,44.36
2022-09-05T00:03:00.834Z,44.71
2022-09-05T00:06:03.208Z,44.58
2022-09-05T00:09:02.264Z,44.58
2022-09-05T00:11:47.728Z,44.49
2022-09-05T00:15:14.726Z,44.79
2022-09-05T00:18:44.120Z,44.80
2022-09-05T00:24:24.986Z,45.08
2022-09-05T00:24:35.106Z,44.72
2022-09-05T00:27:43.707Z,45.17
2022-09-05T00:31:51.041Z,45.40
2022-09-05T00:33:31.947Z,45.49
2022-09-05T00:36:48.898Z,44.94
2022-09-05T00:39:37.957Z,44.96
2022-09-05T00:42:21.518Z,45.48
2022-09-05T00:44:59.120Z,45.07
2022-09-05T00:47:48.224Z,45.04
2022-09-05T00:51:03.292Z,45.03
2022-09-05T00:53:42.315Z,45.65
2022-09-05T00:57:00.892Z,45.60
2022-09-05T01:00:19.214Z,45.79
2022-09-05T01:03:32.283Z,46.05
2022-09-05T01:06:35.182Z,45.69
2022-09-05T01:09:12.637Z,46.14
2022-09-05T01:12:25.324Z,46.36
2022-09-05T01:15:05.137Z,46.49
2022-09-05T01:18:14.573Z,46.65
2022-09-05T01:20:54.144Z,46.58
2022-09-05T01:23:59.859Z,46.66
2022-09-05T01:27:00.510Z,46.57
2022-09-05T01:29:40.090Z,46.26
2022-09-05T01:32:33.025Z,46.26
2022-09-05T01:35:28.569Z,46.24
2022-09-05T01:38:21.229Z,46.20
2022-09-05T01:41:18.011Z,46.13
2022-09-05T01:44:29.446Z,46.36
2022-09-05T01:47:31.045Z,46.43
2022-09-05T01:50:32.666Z,46.41
2022-09-05T01:53:05.825Z,46.23
2022-09-05T01:56:05.829Z,46.66
2022-09-05T01:58:55.886Z,46.67
2022-09-05T02:01:57.711Z,46.22
2022-09-05T02:04:28.338Z,46.69
2022-09-05T02:07:57.336Z,46.33
2022-09-05T02:11:08.359Z,46.44
2022-09-05T02:13:36.017Z,46.50
2022-09-05T02:16:38.753Z,46.73
2022-09-05T02:19:09.451Z,46.51
2022-09-05T02:22:14.001Z,46.73
2022-09-05T02:25:30.584Z,46.60
2022-09-05T02:28:10.310Z,46.96
2022-09-05T02:30:57.614Z,46.57
2022-09-05T02:34:08.529Z,47.04
2022-09-05T02:36:44.237Z,46.72
2022-09-05T02:45:09.268Z,46.60
2022-09-05T02:45:17.571Z,47.10
2022-09-05T02:45:45.182Z,46.80
2022-09-05T02:48:21.633Z,47.16
2022-09-05T02:57:28.670Z,47.21
2022-09-05T02:57:37.052Z,47.07
2022-09-05T02:58:05.318Z,46.83
2022-09-05T03:00:51.077Z,47.51
2022-09-05T03:03:39.284Z,47.43
2022-09-05T03:06:40.671Z,47.74
2022-09-05T03:09:28.702Z,47.30
2022-09-05T03:12:30.058Z,47.46
2022-09-05T03:15:18.639Z,47.76
2022-09-05T03:18:20.541Z,47.68
2022-09-05T03:21:26.972Z,47.70
2022-09-05T03:24:32.002Z,47.85
2022-09-05T03:27:46.608Z,47.68
2022-09-05T03:30:26.218Z,47.24
2022-09-05T03:33:39.374Z,47.78
2022-09-05T03:36:48.228Z,47.58
2022-09-05T03:39:46.460Z,47.95
2022-09-05T03:42:57.610Z,48.16
2022-09-05T03:46:05.203Z,47.85
2022-09-05T03:48:58.045Z,48.00
2022-09-05T03:57:14.767Z,47.90
2022-09-05T03:57:27.025Z,48.44
2022-09-05T03:58:55.398Z,48.66
2022-09-05T04:02:22.400Z,48.28
2022-09-05T04:08:08.280Z,48.31
2022-09-05T04:08:23.655Z,48.50
2022-09-05T04:11:19.541Z,48.46
2022-09-05T04:14:02.841Z,48.73
2022-09-05T04:17:19.184Z,48.64
2022-09-05T04:20:28.955Z,48.85
2022-09-05T04:23:28.408Z,48.79
2022-09-05T04:26:30.382Z,49.14
2022-09-05T04:29:26.251Z,49.05
2022-09-05T04:32:38.379Z,49.21
2022-09-05T04:36:18.277Z,49.39
2022-09-05T04:38:46.637Z,49.09
2022-09-05T04:41:39.952Z,49.17
2022-09-05T04:44:17.968Z,49.48
2022-09-05T04:46:53.690Z,49.41
2022-09-05T04:49:40.216Z,49.65
2022-09-05T04:52:55.205Z,49.48
2022-09-05T04:55:30.508Z,49.66
2022-09-05T04:59:29.335Z,49.35
2022-09-05T05:06:02.070Z,49.56
2022-09-05T05:06:09.937Z,49.30
2022-09-05T05:07:27.189Z,49.01
2022-09-05T05:12:08.867Z,49.34
2022-09-05T05:17:55.803Z,49.27
2022-09-05T05:18:15.779Z,49.54
2022-09-05T05:19:33.116Z,49.57
2022-09-05T05:22:04.740Z,49.61
2022-09-05T05:24:46.864Z,49.50
2022-09-05T05:27:39.001Z,49.69
2022-09-05T05:30:11.112Z,49.69
2022-09-05T05:32:51.810Z,49.68
2022-09-05T05:35:30.438Z,49.51
2022-09-05T05:38:16.898Z,49.79
2022-09-05T05:41:16.248Z,49.80
2022-09-05T05:43:46.774Z,49.69
2022-09-05T05:46:33.536Z,49.51
2022-09-05T05:49:49.376Z,49.82
2022-09-05T05:53:01.194Z,49.74
2022-09-05T05:56:02.839Z,49.66
2022-09-05T05:58:59.186Z,49.70
2022-09-05T06:02:02.973Z,49.59
2022-09-05T06:05:00.636Z,49.44
2022-09-05T06:11:20.438Z,49.45
2022-09-05T06:14:52.425Z,49.46
2022-09-05T06:15:10.144Z,49.50
2022-09-05T06:17:51.779Z,49.62
2022-09-05T06:22:06.198Z,49.43
2022-09-05T06:24:28.596Z,49.59
2022-09-05T06:27:28.947Z,49.67
2022-09-05T06:30:14.599Z,49.58
2022-09-05T06:33:10.170Z,49.59
2022-09-05T06:36:25.632Z,49.74
2022-09-05T06:39:31.945Z,49.60
2022-09-05T06:42:43.232Z,49.42
2022-09-05T06:45:58.980Z,49.33
2022-09-05T06:49:30.072Z,49.37
2022-09-05T06:52:29.412Z,49.21
2022-09-05T06:55:38.177Z,49.24
2022-09-05T06:58:27.599Z,49.27
2022-09-05T07:00:58.551Z,49.36
2022-09-05T07:04:34.548Z,48.94
2022-09-05T07:07:06.248Z,49.09
2022-09-05T07:09:47.670Z,48.81
2022-09-05T07:12:48.539Z,48.69
2022-09-05T07:16:00.446Z,48.71
2022-09-05T07:19:03.162Z,49.10
2022-09-05T07:21:54.694Z,48.91
2022-09-05T07:24:53.754Z,48.94
2022-09-05T07:28:25.781Z,48.97
2022-09-05T07:30:33.869Z,48.87
2022-09-05T07:33:04.390Z,48.85
2022-09-05T07:35:42.254Z,48.84
2022-09-05T07:38:26.768Z,49.12
2022-09-05T07:41:25.252Z,48.93
2022-09-05T07:44:18.555Z,48.47
2022-09-05T07:46:59.009Z,48.81
2022-09-05T07:49:31.143Z,48.29
2022-09-05T07:56:52.411Z,48.30
2022-09-05T07:56:54.486Z,48.43
2022-09-05T07:58:41.382Z,47.90
2022-09-05T08:01:13.483Z,47.94
2022-09-05T08:03:44.022Z,47.62
2022-09-05T08:06:37.509Z,47.35
2022-09-05T08:10:08.378Z,47.00
2022-09-05T08:12:28.128Z,47.01
2022-09-05T08:15:22.870Z,46.65
2022-09-05T08:18:37.939Z,46.53
2022-09-05T08:21:51.912Z,46.15
2022-09-05T08:24:27.074Z,45.96
2022-09-05T08:27:20.323Z,45.92
2022-09-05T08:30:25.099Z,45.80
2022-09-05T08:33:11.295Z,45.76
2022-09-05T08:36:10.546Z,45.86
2022-09-05T08:38:42.429Z,45.44
2022-09-05T08:41:43.090Z,45.70
2022-09-05T08:46:44.007Z,45.24
2022-09-05T08:47:45.713Z,44.89
2022-09-05T08:50:26.813Z,44.85
2022-09-05T08:53:46.280Z,44.80
2022-09-05T08:56:33.979Z,44.77
2022-09-05T08:59:35.060Z,44.65
2022-09-05T09:02:47.051Z,44.59
2022-09-05T09:06:12.291Z,44.25
2022-09-05T09:08:52.406Z,44.42
2022-09-05T09:11:50.990Z,44.43
2022-09-05T09:14:52.574Z,44.31
2022-09-05T09:17:47.198Z,44.31
2022-09-05T09:20:37.883Z,44.12
2022-09-05T09:23:32.322Z,44.18
2022-09-05T09:26:17.195Z,43.97
2022-09-05T09:29:10.316Z,44.03
2022-09-05T09:32:09.666Z,43.89
2022-09-05T09:35:16.828Z,43.53
2022-09-05T09:38:28.262Z,43.69
2022-09-05T09:41:26.985Z,43.32
2022-09-05T09:44:24.238Z,42.88
2022-09-05T09:46:53.434Z,43.09
2022-09-05T09:49:54.975Z,43.15
2022-09-05T09:52:56.688Z,42.98
2022-09-05T09:56:06.648Z,42.18
2022-09-05T09:59:03.748Z,42.09
2022-09-05T10:01:53.351Z,41.76
2022-09-05T10:10:38.734Z,41.67
2022-09-05T10:10:55.576Z,41.04
2022-09-05T10:15:06.538Z,41.11
2022-09-05T10:18:25.727Z,40.77
2022-09-05T10:21:17.372Z,39.93
2022-09-05T10:24:22.829Z,39.72
2022-09-05T10:27:25.174Z,40.04
2022-09-05T10:32:10.345Z,39.72
2022-09-05T10:35:14.037Z,39.46
2022-09-05T10:36:30.058Z,39.50
2022-09-05T10:39:21.072Z,39.62
2022-09-05T10:42:03.552Z,38.56
2022-09-05T10:45:02.381Z,38.79
2022-09-05T10:47:48.420Z,38.37
2022-09-05T10:50:37.025Z,38.99
2022-09-05T10:53:28.250Z,38.23
2022-09-05T10:56:12.682Z,38.14
2022-09-05T11:01:48.570Z,37.41
2022-09-05T11:02:27.747Z,38.14
2022-09-05T11:05:23.621Z,37.60
2022-09-05T11:08:18.372Z,37.48
2022-09-05T11:11:01.362Z,37.27
2022-09-05T11:14:00.849Z,37.44
2022-09-05T11:16:53.100Z,37.24
2022-09-05T11:19:49.084Z,36.80
2022-09-05T11:22:22.819Z,36.24
2022-09-05T11:24:59.756Z,36.72
2022-09-05T11:27:49.259Z,36.60
2022-09-05T11:30:30.298Z,36.16
2022-09-05T11:39:47.611Z,36.82
2022-09-05T11:40:10.268Z,36.24
2022-09-05T11:42:58.344Z,35.88
2022-09-05T11:45:58.529Z,35.68
2022-09-05T11:48:54.012Z,35.63
2022-09-05T11:52:14.278Z,35.74
2022-09-05T11:55:00.502Z,35.64
2022-09-05T11:58:43.463Z,35.69
2022-09-05T12:01:41.823Z,35.48
2022-09-05T12:04:46.686Z,35.66
2022-09-05T12:08:08.566Z,34.93
2022-09-05T12:11:05.517Z,34.94
2022-09-05T12:14:25.416Z,34.72
2022-09-05T12:17:35.474Z,34.98
2022-09-05T12:20:31.812Z,34.27
2022-09-05T12:23:53.810Z,34.40
2022-09-05T12:27:40.545Z,32.99
2022-09-05T12:29:29.236Z,32.92
2022-09-05T12:33:58.098Z,32.98
2022-09-05T12:36:09.835Z,32.49
2022-09-05T12:40:55.126Z,32.82
2022-09-05T12:41:36.165Z,32.38
2022-09-05T12:44:52.538Z,32.20
2022-09-05T12:47:24.088Z,32.04
2022-09-05T12:50:15.253Z,31.78
2022-09-05T12:52:46.709Z,31.24
2022-09-05T12:55:26.214Z,31.02
2022-09-05T13:01:46.269Z,30.68
2022-09-05T13:03:02.511Z,30.40
2022-09-05T13:04:20.898Z,30.04
2022-09-05T13:07:18.361Z,30.52
2022-09-05T13:12:48.134Z,30.43
2022-09-05T13:14:54.908Z,30.56
2022-09-05T13:15:51.055Z,30.74
2022-09-05T13:18:31.867Z,29.57
2022-09-05T13:21:08.558Z,29.92
2022-09-05T13:24:27.536Z,30.15
2022-09-05T13:27:28.521Z,29.78
2022-09-05T13:32:39.044Z,29.33
2022-09-05T13:38:04.874Z,28.46
2022-09-05T13:38:06.454Z,29.25
2022-09-05T13:39:12.495Z,29.04
2022-09-05T13:41:59.542Z,28.33
2022-09-05T13:44:30.079Z,27.74
2022-09-05T13:47:30.352Z,28.00
2022-09-05T13:50:33.799Z,27.90
2022-09-05T13:53:37.918Z,27.80
2022-09-05T13:56:27.574Z,27.24
2022-09-05T13:59:16.259Z,25.97
2022-09-05T14:05:35.521Z,26.74
2022-09-05T14:08:33.734Z,26.69
2022-09-05T14:11:19.049Z,26.12
2022-09-05T14:14:11.315Z,26.56
2022-09-05T14:20:27.964Z,26.39
2022-09-05T14:23:15.897Z,25.74
2022-09-05T14:25:55.571Z,25.48
2022-09-05T14:28:38.602Z,25.71
2022-09-05T14:37:44.832Z,25.41
2022-09-05T14:37:46.745Z,26.09
2022-09-05T14:38:09.399Z,25.22
2022-09-05T14:40:59.696Z,24.74
2022-09-05T14:44:05.371Z,25.25
2022-09-05T14:46:39.181Z,23.75
2022-09-05T14:50:30.136Z,24.67
2022-09-05T14:56:59.742Z,24.42
2022-09-05T15:02:49.655Z,24.47
2022-09-05T15:03:00.197Z,24.42
2022-09-05T15:05:29.327Z,24.06
2022-09-05T15:10:06.461Z,24.08
2022-09-05T15:12:24.351Z,23.74
2022-09-05T15:14:05.003Z,23.60
2022-09-05T15:16:38.713Z,23.82
2022-09-05T15:19:10.768Z,23.98
2022-09-05T15:21:41.515Z,23.22
2022-09-05T15:24:27.984Z,23.34
2022-09-05T15:27:02.769Z,23.25
2022-09-05T15:29:36.834Z,23.27
2022-09-05T15:32:27.341Z,23.68
2022-09-05T15:34:59.137Z,23.02
2022-09-05T15:37:38.741Z,23.27
2022-09-05T15:40:07.432Z,23.21
2022-09-05T15:43:02.586Z,23.28
2022-09-05T15:45:37.309Z,23.11
2022-09-05T15:48:21.509Z,23.12
2022-09-05T15:50:52.893Z,23.28
2022-09-05T15:53:36.481Z,23.67
2022-09-05T15:56:10.367Z,23.59
2022-09-05T15:58:56.927Z,23.86
2022-09-05T16:01:58.691Z,24.05
2022-09-05T16:10:26.967Z,23.67
2022-09-05T16:10:41.443Z,23.93
2022-09-05T16:10:58.031Z,24.29
2022-09-05T16:13:19.399Z,23.95
2022-09-05T16:23:18.047Z,24.50
2022-09-05T16:23:26.778Z,25.10
2022-09-05T16:23:27.396Z,24.61
2022-09-05T16:24:58.995Z,25.70
2022-09-05T16:27:57.654Z,25.79
2022-09-05T16:30:31.122Z,26.17
2022-09-05T16:33:16.503Z,26.39
2022-09-05T16:36:02.461Z,26.38
2022-09-05T16:39:15.171Z,26.82
2022-09-05T16:41:57.959Z,27.50
2022-09-05T16:44:43.231Z,27.74
2022-09-05T16:48:08.085Z,27.75
2022-09-05T16:51:13.443Z,28.16
2022-09-05T16:53:58.337Z,27.82
2022-09-05T16:56:37.008Z,28.23
2022-09-05T16:59:17.750Z,28.51
2022-09-05T17:02:07.257Z,28.60
2022-09-05T17:05:03.508Z,28.42
2022-09-05T17:07:45.368Z,28.34
2022-09-05T17:10:21.111Z,28.49
2022-09-05T17:12:54.071Z,28.54
2022-09-05T17:15:38.233Z,28.17
2022-09-05T17:18:25.984Z,28.26
2022-09-05T17:21:00.408Z,28.42
2022-09-05T17:26:13.225Z,28.93
2022-09-05T17:29:32.371Z,28.46
2022-09-05T17:32:50.703Z,29.06
2022-09-05T17:35:43.728Z,29.11
2022-09-05T17:39:01.591Z,30.01
2022-09-05T17:41:51.638Z,30.96
2022-09-05T17:44:38.861Z,31.37
2022-09-05T17:47:36.383Z,31.86
2022-09-05T17:50:20.329Z,31.91
2022-09-05T17:53:25.156Z,32.54
2022-09-05T17:55:50.543Z,32.80
2022-09-05T17:58:49.018Z,32.89
2022-09-05T18:01:26.386Z,33.22
2022-09-05T18:04:08.588Z,33.45
2022-09-05T18:06:58.973Z,33.38
2022-09-05T18:09:37.535Z,33.44
2022-09-05T18:13:11.951Z,33.36
2022-09-05T18:15:17.002Z,33.55
2022-09-05T18:18:49.408Z,33.69
2022-09-05T18:21:22.305Z,34.05
2022-09-05T18:24:01.339Z,33.37
2022-09-05T18:26:39.627Z,33.77
2022-09-05T18:29:57.895Z,33.98
2022-09-05T18:32:54.280Z,34.19
2022-09-05T18:36:04.371Z,34.24
2022-09-05T18:38:51.512Z,34.18
2022-09-05T18:41:28.276Z,34.56
2022-09-05T18:44:13.616Z,34.71
2022-09-05T18:46:52.520Z,34.41
2022-09-05T18:50:22.390Z,34.29
2022-09-05T18:52:34.251Z,34.62
2022-09-05T18:56:08.924Z,34.43
2022-09-05T18:58:25.748Z,34.70
2022-09-05T19:00:56.001Z,34.86
2022-09-05T19:03:32.196Z,35.40
2022-09-05T19:06:36.250Z,35.52
2022-09-05T19:09:10.790Z,35.44
2022-09-05T19:11:53.988Z,35.38
2022-09-05T19:14:49.170Z,35.54
2022-09-05T19:17:24.120Z,35.13
2022-09-05T19:20:32.947Z,34.64
2022-09-05T19:23:13.172Z,34.51
2022-09-05T19:25:46.115Z,33.96
2022-09-05T19:33:30.012Z,34.05
2022-09-05T19:36:50.763Z,34.21
2022-09-05T19:36:58.281Z,34.28
2022-09-05T19:37:25.500Z,34.29
2022-09-05T19:46:24.814Z,34.62
2022-09-05T19:47:29.718Z,34.60
2022-09-05T19:47:47.689Z,34.59
2022-09-05T19:48:35.070Z,34.66
2022-09-05T19:51:17.143Z,35.41
2022-09-05T19:54:04.081Z,35.04
2022-09-05T19:56:40.206Z,35.15
2022-09-05T19:59:22.637Z,35.36
2022-09-05T20:01:53.108Z,35.47
2022-09-05T20:04:21.731Z,35.34
2022-09-05T20:06:50.328Z,35.97
2022-09-05T20:09:24.393Z,35.56
2022-09-05T20:11:58.550Z,35.97
2022-09-05T20:14:31.285Z,36.11
2022-09-05T20:17:17.303Z,35.97
2022-09-05T20:19:46.012Z,36.54
2022-09-05T20:22:37.121Z,36.90
2022-09-05T20:25:35.791Z,36.41
2022-09-05T20:28:35.671Z,36.28
2022-09-05T20:31:12.242Z,36.46
2022-09-05T20:33:51.634Z,36.27
2022-09-05T20:42:14.066Z,36.27
2022-09-05T20:43:16.579Z,36.41
2022-09-05T20:43:17.746Z,37.11
2022-09-05T20:45:54.472Z,37.09
2022-09-05T20:54:09.365Z,37.29
2022-09-05T20:54:15.238Z,37.91
2022-09-05T20:54:39.368Z,37.81
2022-09-05T20:57:18.882Z,37.89
2022-09-05T20:59:47.379Z,38.36
2022-09-05T21:02:29.518Z,38.44
2022-09-05T21:05:20.969Z,38.87
2022-09-05T21:08:06.788Z,38.95
2022-09-05T21:10:55.033Z,38.71
2022-09-05T21:13:32.310Z,38.87
2022-09-05T21:16:01.213Z,38.88
2022-09-05T21:18:33.229Z,39.07
2022-09-05T21:21:28.103Z,39.02
2022-09-05T21:24:17.344Z,39.25
2022-09-05T21:26:48.753Z,39.13
2022-09-05T21:29:33.229Z,39.44
2022-09-05T21:32:10.434Z,39.92
2022-09-05T21:34:53.750Z,39.64
2022-09-05T21:37:21.631Z,39.75
2022-09-05T21:39:59.753Z,40.33
2022-09-05T21:47:03.534Z,40.38
2022-09-05T21:47:40.211Z,40.60
2022-09-05T21:48:15.075Z,40.85
2022-09-05T21:50:46.512Z,40.75
2022-09-05T21:58:37.594Z,40.72
2022-09-05T21:59:20.807Z,40.87
2022-09-05T21:59:46.884Z,41.29
2022-09-05T22:02:16.854Z,41.26
2022-09-05T22:04:46.089Z,41.11
2022-09-05T22:07:25.365Z,41.31
2022-09-05T22:10:04.432Z,41.23
2022-09-05T22:12:38.749Z,41.20
2022-09-05T22:15:26.545Z,40.99
2022-09-05T22:18:16.083Z,40.87
2022-09-05T22:21:03.982Z,41.03
2022-09-05T22:23:38.724Z,41.35
2022-09-05T22:26:06.767Z,41.22
2022-09-05T22:28:38.750Z,41.31
2022-09-05T22:31:07.917Z,41.44
2022-09-05T22:33:36.395Z,41.52
2022-09-05T22:36:04.856Z,41.60
2022-09-05T22:38:33.433Z,41.72
2022-09-05T22:41:01.187Z,41.61
2022-09-05T22:43:33.900Z,41.70
2022-09-05T22:46:01.745Z,41.93
2022-09-05T22:48:29.901Z,41.80
2022-09-05T22:50:58.002Z,41.67
2022-09-05T22:53:26.072Z,41.78
2022-09-05T22:56:05.631Z,41.54
2022-09-05T22:58:51.517Z,41.95
2022-09-05T23:01:19.292Z,42.02
2022-09-05T23:03:47.236Z,41.81
2022-09-05T23:06:15.063Z,41.76
2022-09-05T23:08:42.868Z,41.95
2022-09-05T23:11:14.019Z,41.96
2022-09-05T23:13:43.037Z,42.05
2022-09-05T23:16:11.510Z,41.86
2022-09-05T23:18:40.231Z,42.17
2022-09-05T23:21:11.765Z,42.48
2022-09-05T23:23:41.418Z,42.31
2022-09-05T23:26:12.512Z,42.60
2022-09-05T23:28:43.411Z,42.31
2022-09-05T23:31:12.793Z,42.41
2022-09-05T23:33:42.061Z,42.21
2022-09-05T23:36:15.860Z,42.45
2022-09-05T23:38:44.154Z,42.54
2022-09-05T23:41:14.777Z,42.38
2022-09-05T23:43:43.078Z,42.46
2022-09-05T23:46:11.354Z,42.48
2022-09-05T23:48:39.642Z,42.77
2022-09-05T23:51:13.129Z,42.75
2022-09-05T23:53:41.445Z,42.74
2022-09-05T23:56:10.994Z,42.79
2022-09-05T23:58:39.128Z,42.85
